createdAt,value
2023-08-29T00:03:14.673Z,97346.00
2023-08-29T00:07:15.884Z,97335.00
2023-08-29T00:11:17.498Z,97326.00
2023-08-29T00:15:18.646Z,97323.00
2023-08-29T00:19:21.826Z,97190.00
2023-08-29T00:23:23.223Z,97325.00
2023-08-29T00:27:24.763Z,97325.00
2023-08-29T00:31:26.107Z,97318.00
2023-08-29T00:35:27.391Z,97340.00
2023-08-29T00:39:28.541Z,97331.00
2023-08-29T00:43:29.822Z,97330.00
2023-08-29T00:47:31.063Z,97337.00
2023-08-29T00:51:32.592Z,97341.00
2023-08-29T00:55:35.567Z,97344.00
2023-08-29T00:59:37.021Z,97376.00
2023-08-29T01:03:39.559Z,97389.00
2023-08-29T01:07:40.886Z,97396.00
2023-08-29T01:11:48.671Z,97391.00
2023-08-29T01:15:52.954Z,97400.00
2023-08-29T01:19:54.836Z,97403.00
2023-08-29T01:24:08.478Z,97389.00
2023-08-29T01:28:10.366Z,97390.00
2023-08-29T01:32:13.547Z,97407.00
2023-08-29T01:36:14.702Z,97411.00
2023-08-29T01:40:15.842Z,97416.00
2023-08-29T01:44:17.073Z,97409.00
2023-08-29T01:48:18.071Z,97394.00
2023-08-29T01:52:19.205Z,97383.00
2023-08-29T01:56:23.576Z,97376.00
2023-08-29T02:00:25.286Z,97373.00
2023-08-29T02:04:26.314Z,97356.00
2023-08-29T02:08:27.418Z,97356.00
2023-08-29T02:12:28.524Z,97365.00
2023-08-29T02:16:31.536Z,97374.00
2023-08-29T02:20:32.716Z,97356.00
2023-08-29T02:24:33.885Z,97351.00
2023-08-29T02:28:36.621Z,97347.00
2023-08-29T02:32:39.158Z,97336.00
2023-08-29T02:36:41.224Z,97326.00
2023-08-29T02:40:42.237Z,97326.00
2023-08-29T02:44:43.718Z,97321.00
2023-08-29T02:48:44.830Z,97320.00
2023-08-29T02:52:46.062Z,97315.00
2023-08-29T02:56:47.081Z,97302.00
2023-08-29T03:00:57.630Z,97303.00
2023-08-29T03:04:58.775Z,97294.00
2023-08-29T03:08:59.835Z,97287.00
2023-08-29T03:13:01.141Z,97283.00
2023-08-29T03:17:02.486Z,97285.00
2023-08-29T03:21:06.397Z,97274.00
2023-08-29T03:25:08.278Z,97276.00
2023-08-29T03:29:09.289Z,97282.00
2023-08-29T03:33:10.475Z,97277.00
2023-08-29T03:37:11.759Z,97275.00
2023-08-29T03:41:12.918Z,97282.00
2023-08-29T03:45:14.210Z,97281.00
2023-08-29T03:49:15.214Z,97282.00
2023-08-29T03:53:17.073Z,97296.00
2023-08-29T03:57:18.285Z,97294.00
2023-08-29T04:01:20.255Z,97300.00
2023-08-29T04:05:22.621Z,97296.00
2023-08-29T04:09:24.007Z,97301.00
2023-08-29T04:13:25.118Z,97298.00
2023-08-29T04:17:26.481Z,97302.00
2023-08-29T04:21:27.651Z,97302.00
2023-08-29T04:25:28.814Z,97300.00
2023-08-29T04:29:30.085Z,97294.00
2023-08-29T04:33:31.116Z,97299.00
2023-08-29T04:37:34.508Z,97298.00
2023-08-29T04:41:35.694Z,97289.00
2023-08-29T04:45:37.280Z,97291.00
2023-08-29T04:49:38.290Z,97291.00
2023-08-29T04:53:39.305Z,97282.00
2023-08-29T04:57:40.379Z,97293.00
2023-08-29T05:01:41.621Z,97290.00
2023-08-29T05:05:47.597Z,97292.00
2023-08-29T05:09:48.744Z,97285.00
2023-08-29T05:13:49.930Z,97285.00
2023-08-29T05:17:51.058Z,97285.00
2023-08-29T05:21:52.366Z,97288.00
2023-08-29T05:25:53.690Z,97291.00
2023-08-29T05:29:54.686Z,97286.00
2023-08-29T05:33:56.368Z,97277.00
2023-08-29T05:37:57.497Z,97282.00
2023-08-29T05:41:58.694Z,97277.00
2023-08-29T05:45:59.725Z,97277.00
2023-08-29T05:50:00.748Z,97285.00
2023-08-29T05:54:01.961Z,97282.00
2023-08-29T05:58:03.449Z,97291.00
2023-08-29T06:02:06.503Z,97293.00
2023-08-29T06:06:07.903Z,97280.00
2023-08-29T06:10:09.862Z,97286.00
2023-08-29T06:14:11.147Z,97281.00
2023-08-29T06:18:12.382Z,97281.00
2023-08-29T06:22:15.356Z,97281.00
2023-08-29T06:26:16.730Z,97278.00
2023-08-29T06:30:18.282Z,97288.00
2023-08-29T06:34:19.478Z,97293.00
2023-08-29T06:38:20.693Z,97310.00
2023-08-29T06:42:22.002Z,97295.00
2023-08-29T06:46:23.575Z,97309.00
2023-08-29T06:50:25.043Z,97292.00
2023-08-29T06:54:27.135Z,97291.00
2023-08-29T06:58:28.360Z,97299.00
2023-08-29T07:02:29.588Z,97299.00
2023-08-29T07:06:30.877Z,97291.00
2023-08-29T07:10:31.948Z,97299.00
2023-08-29T07:14:33.092Z,97288.00
2023-08-29T07:18:34.254Z,97292.00
2023-08-29T07:22:41.324Z,97293.00
2023-08-29T07:26:42.521Z,97292.00
2023-08-29T07:30:46.327Z,97295.00
2023-08-29T07:34:47.416Z,97307.00
2023-08-29T07:38:48.894Z,97312.00
2023-08-29T07:42:50.009Z,97312.00
2023-08-29T07:47:11.877Z,97316.00
2023-08-29T07:50:54.333Z,97326.00
2023-08-29T07:54:57.611Z,97324.00
2023-08-29T07:58:58.751Z,97328.00
2023-08-29T08:03:01.052Z,97334.00
2023-08-29T08:07:02.036Z,97335.00
2023-08-29T08:11:05.185Z,97341.00
2023-08-29T08:15:08.555Z,97343.00
2023-08-29T08:19:11.019Z,97340.00
2023-08-29T08:23:12.525Z,97346.00
2023-08-29T08:27:14.057Z,97335.00
2023-08-29T08:31:15.084Z,97337.00
2023-08-29T08:35:16.317Z,97344.00
2023-08-29T08:39:17.782Z,97348.00
2023-08-29T08:43:18.882Z,97343.00
2023-08-29T08:47:20.391Z,97357.00
2023-08-29T08:51:23.030Z,97361.00
2023-08-29T08:55:24.359Z,97360.00
2023-08-29T08:59:26.259Z,97359.00
2023-08-29T09:03:27.448Z,97362.00
2023-08-29T09:07:28.560Z,97366.00
2023-08-29T09:11:30.304Z,97365.00
2023-08-29T09:15:32.773Z,97365.00
2023-08-29T09:19:34.883Z,97355.00
2023-08-29T09:23:39.202Z,97360.00
2023-08-29T09:27:46.206Z,97369.00
2023-08-29T09:31:48.278Z,97353.00
2023-08-29T09:35:50.296Z,97366.00
2023-08-29T09:39:54.128Z,97375.00
2023-08-29T09:43:55.121Z,97371.00
2023-08-29T09:48:02.824Z,97369.00
2023-08-29T09:52:04.256Z,97365.00
2023-08-29T09:56:08.655Z,97361.00
2023-08-29T10:00:12.853Z,97352.00
2023-08-29T10:04:19.598Z,97346.00
2023-08-29T10:08:36.807Z,97347.00
2023-08-29T10:12:41.003Z,97344.00
2023-08-29T10:16:42.592Z,97345.00
2023-08-29T10:20:45.316Z,97351.00
2023-08-29T10:24:46.371Z,97350.00
2023-08-29T10:28:49.211Z,97344.00
2023-08-29T10:32:50.764Z,97355.00
2023-08-29T10:36:51.885Z,97354.00
2023-08-29T10:41:03.585Z,97351.00
2023-08-29T10:45:05.376Z,97353.00
2023-08-29T10:49:10.223Z,97354.00
2023-08-29T10:53:19.359Z,97342.00
2023-08-29T10:57:30.627Z,97342.00
2023-08-29T11:01:32.325Z,97341.00
2023-08-29T11:05:39.104Z,97334.00
2023-08-29T11:09:41.223Z,97334.00
2023-08-29T11:14:03.238Z,97333.00
2023-08-29T11:18:35.564Z,97329.00
2023-08-29T11:22:38.775Z,97328.00
2023-08-29T11:26:41.530Z,97328.00
2023-08-29T11:30:45.505Z,97339.00
2023-08-29T11:34:52.611Z,97345.00
2023-08-29T11:38:53.675Z,97326.00
2023-08-29T11:43:24.844Z,97336.00
2023-08-29T11:47:01.395Z,97331.00
2023-08-29T11:51:06.705Z,97332.00
2023-08-29T11:55:11.388Z,97326.00
2023-08-29T11:59:12.745Z,97333.00
2023-08-29T12:03:13.957Z,97326.00
2023-08-29T12:07:17.420Z,97333.00
2023-08-29T12:11:19.205Z,97331.00
2023-08-29T12:15:38.037Z,97324.00
2023-08-29T12:19:28.859Z,97326.00
2023-08-29T12:23:29.904Z,97317.00
2023-08-29T12:27:31.099Z,97313.00
2023-08-29T12:31:32.532Z,97313.00
2023-08-29T12:35:33.946Z,97305.00
2023-08-29T12:39:35.006Z,97309.00
2023-08-29T12:43:36.065Z,97304.00
2023-08-29T12:47:39.265Z,97312.00
2023-08-29T12:51:40.533Z,97299.00
2023-08-29T12:55:41.603Z,97313.00
2023-08-29T12:59:42.632Z,97315.00
2023-08-29T13:03:44.115Z,97312.00
2023-08-29T13:07:48.396Z,97302.00
2023-08-29T13:11:49.531Z,97296.00
2023-08-29T13:15:51.855Z,97297.00
2023-08-29T13:19:53.142Z,97306.00
2023-08-29T13:23:54.268Z,97301.00
2023-08-29T13:27:56.351Z,97306.00
2023-08-29T13:31:57.531Z,97298.00
2023-08-29T13:35:58.759Z,97306.00
2023-08-29T13:40:00.161Z,97301.00
2023-08-29T13:44:01.326Z,97311.00
2023-08-29T13:48:04.662Z,97312.00
2023-08-29T13:52:07.975Z,97312.00
2023-08-29T13:56:09.162Z,97319.00
2023-08-29T14:00:11.539Z,97326.00
2023-08-29T14:04:12.619Z,97319.00
2023-08-29T14:08:13.763Z,97324.00
2023-08-29T14:12:14.913Z,97320.00
2023-08-29T14:16:16.021Z,97318.00
2023-08-29T14:20:17.160Z,97320.00
2023-08-29T14:24:18.249Z,97317.00
2023-08-29T14:28:19.493Z,97309.00
2023-08-29T14:32:20.617Z,97312.00
2023-08-29T14:36:21.669Z,97308.00
2023-08-29T14:40:27.788Z,97310.00
2023-08-29T14:44:28.984Z,97304.00
2023-08-29T14:48:31.424Z,97297.00
2023-08-29T14:52:34.712Z,97294.00
2023-08-29T14:56:37.515Z,97302.00
2023-08-29T15:00:40.466Z,97309.00
2023-08-29T15:04:41.527Z,97158.00
2023-08-29T15:08:43.199Z,97303.00
2023-08-29T15:12:44.428Z,97302.00
2023-08-29T15:16:47.725Z,97305.00
2023-08-29T15:20:49.345Z,97303.00
2023-08-29T15:24:50.729Z,97311.00
2023-08-29T15:28:52.350Z,97314.00
2023-08-29T15:32:53.664Z,97305.00
2023-08-29T15:36:56.083Z,97311.00
2023-08-29T15:40:57.282Z,97314.00
2023-08-29T15:44:58.288Z,97316.00
2023-08-29T15:48:59.288Z,97313.00
2023-08-29T15:53:01.961Z,97315.00
2023-08-29T15:57:04.291Z,97315.00
2023-08-29T16:01:07.332Z,97314.00
2023-08-29T16:05:08.758Z,97308.00
2023-08-29T16:09:10.791Z,97310.00
2023-08-29T16:13:11.927Z,97311.00
2023-08-29T16:17:12.977Z,97308.00
2023-08-29T16:21:17.230Z,97308.00
2023-08-29T16:25:17.318Z,97346.00
2023-08-29T16:29:18.408Z,97312.00
2023-08-29T16:33:19.582Z,97312.00
2023-08-29T16:37:20.952Z,97309.00
2023-08-29T16:41:21.990Z,97309.00
2023-08-29T16:45:26.851Z,97305.00
2023-08-29T16:49:27.833Z,97313.00
2023-08-29T16:53:28.960Z,97310.00
2023-08-29T16:57:30.022Z,97310.00
2023-08-29T17:01:31.114Z,97323.00
2023-08-29T17:05:34.145Z,97318.00
2023-08-29T17:09:36.421Z,97320.00
2023-08-29T17:13:37.702Z,97321.00
2023-08-29T17:17:39.140Z,97331.00
2023-08-29T17:21:40.670Z,97318.00
2023-08-29T17:25:41.752Z,97326.00
2023-08-29T17:29:43.877Z,97317.00
2023-08-29T17:33:44.941Z,97322.00
2023-08-29T17:37:45.942Z,97321.00
2023-08-29T17:41:47.067Z,97332.00
2023-08-29T17:45:50.130Z,97321.00
2023-08-29T17:49:51.606Z,97318.00
2023-08-29T17:53:52.854Z,97321.00
2023-08-29T17:57:55.286Z,97328.00
2023-08-29T18:01:56.318Z,97334.00
2023-08-29T18:06:04.053Z,97326.00
2023-08-29T18:10:13.695Z,97324.00
2023-08-29T18:14:14.718Z,97330.00
2023-08-29T18:18:25.081Z,97330.00
2023-08-29T18:22:26.630Z,97330.00
2023-08-29T18:26:29.235Z,97332.00
2023-08-29T18:30:30.233Z,97329.00
2023-08-29T18:34:31.320Z,97328.00
2023-08-29T18:38:32.443Z,97331.00
2023-08-29T18:42:33.496Z,97326.00
2023-08-29T18:46:34.628Z,97332.00
2023-08-29T18:50:36.020Z,97340.00
2023-08-29T18:54:37.163Z,97342.00
2023-08-29T18:58:38.249Z,97348.00
2023-08-29T19:02:40.317Z,97350.00
2023-08-29T19:06:41.340Z,97353.00
2023-08-29T19:10:44.278Z,97353.00
2023-08-29T19:14:46.804Z,97356.00
2023-08-29T19:18:47.840Z,97349.00
2023-08-29T19:22:48.975Z,97354.00
2023-08-29T19:26:50.140Z,97352.00
2023-08-29T19:30:55.987Z,97348.00
2023-08-29T19:34:57.038Z,97346.00
2023-08-29T19:39:08.431Z,97347.00
2023-08-29T19:43:03.361Z,97351.00
2023-08-29T19:47:06.809Z,97345.00
2023-08-29T19:51:07.226Z,97346.00
2023-08-29T19:55:09.077Z,97345.00
2023-08-29T19:59:10.277Z,97352.00
2023-08-29T20:03:11.508Z,97344.00
2023-08-29T20:07:12.586Z,97346.00
2023-08-29T20:11:14.075Z,97339.00
2023-08-29T20:15:16.257Z,97338.00
2023-08-29T20:19:18.254Z,97343.00
2023-08-29T20:23:20.021Z,97336.00
2023-08-29T20:27:21.390Z,97342.00
2023-08-29T20:31:22.751Z,97339.00
2023-08-29T20:35:25.351Z,97340.00
2023-08-29T20:39:26.556Z,97333.00
2023-08-29T20:43:29.032Z,97332.00
2023-08-29T20:47:30.191Z,97321.00
2023-08-29T20:51:33.444Z,97314.00
2023-08-29T20:55:34.527Z,97297.00
2023-08-29T20:59:35.650Z,97313.00
2023-08-29T21:03:36.924Z,97313.00
2023-08-29T21:07:38.048Z,96962.00
2023-08-29T21:11:39.546Z,97321.00
2023-08-29T21:15:41.822Z,97309.00
2023-08-29T21:19:44.395Z,97304.00
2023-08-29T21:23:45.452Z,97302.00
2023-08-29T21:27:46.639Z,97301.00
2023-08-29T21:31:48.457Z,97295.00
2023-08-29T21:35:50.150Z,97289.00
2023-08-29T21:39:51.393Z,97286.00
2023-08-29T21:43:52.524Z,97288.00
2023-08-29T21:47:53.628Z,97300.00
2023-08-29T21:51:54.819Z,97287.00
2023-08-29T21:55:56.151Z,97279.00
2023-08-29T21:59:57.498Z,97270.00
2023-08-29T22:03:58.777Z,97271.00
2023-08-29T22:08:00.217Z,97258.00
2023-08-29T22:12:03.199Z,97259.00
2023-08-29T22:16:04.655Z,97254.00
2023-08-29T22:20:06.586Z,97265.00
2023-08-29T22:24:08.409Z,97262.00
2023-08-29T22:28:09.794Z,97262.00
2023-08-29T22:32:11.500Z,97255.00
2023-08-29T22:36:12.684Z,97247.00
2023-08-29T22:40:14.022Z,97252.00
2023-08-29T22:44:15.208Z,97249.00
2023-08-29T22:48:16.632Z,97241.00
2023-08-29T22:52:18.581Z,97247.00
2023-08-29T22:56:20.177Z,97253.00
2023-08-29T23:00:21.488Z,97256.00
2023-08-29T23:04:22.522Z,97254.00
2023-08-29T23:08:23.759Z,97255.00
2023-08-29T23:12:24.974Z,97242.00
2023-08-29T23:16:26.147Z,97245.00
2023-08-29T23:20:27.205Z,97240.00
2023-08-29T23:24:28.418Z,97240.00
2023-08-29T23:28:29.855Z,97239.00
2023-08-29T23:32:32.592Z,97244.00
2023-08-29T23:36:34.360Z,97241.00
2023-08-29T23:40:37.547Z,97240.00
2023-08-29T23:44:38.851Z,97246.00
2023-08-29T23:48:39.916Z,97245.00
2023-08-29T23:52:41.083Z,97242.00
2023-08-29T23:56:42.144Z,97236.00
